Time;durP1;ratioP1;P1;durP2;ratioP2;P2;SDS_P1;SDS_P2;PMS_P1;PMS_P2;Temp;Humidity;BMP_temperature;BMP_pressure;BME280_temperature;BME280_humidity;BME280_pressure;Samples;Min_cycle;Max_cycle;Signal;HPM_P1;HPM_P2
2021/03/07 00:00:16;;;;;;;13.27;6.45;;;;;;;;;;4985621;28;20369;-59
2021/03/07 00:02:42;;;;;;;17.30;9.07;;;;;;;;;;4986904;28;20026;-59
2021/03/07 00:05:09;;;;;;;16.92;11.23;;;;;;;;;;4987499;28;20478;-59
2021/03/07 00:07:34;;;;;;;21.50;12.25;;;;;;;;;;4982268;28;20035;-59
2021/03/07 00:10:00;;;;;;;20.83;13.05;;;;;;;;;;4990120;28;20031;-58
2021/03/07 00:12:26;;;;;;;21.13;10.77;;;;;;;;;;4989910;28;20109;-58
2021/03/07 00:14:51;;;;;;;14.93;9.65;;;;;;;;;;4986181;28;20038;-58
2021/03/07 00:17:17;;;;;;;16.83;9.68;;;;;;;;;;4988712;28;20053;-59
2021/03/07 00:19:42;;;;;;;13.98;9.43;;;;;;;;;;4990058;28;20041;-63
2021/03/07 00:22:08;;;;;;;11.88;7.57;;;;;;;;;;4989286;28;20070;-59
2021/03/07 00:24:33;;;;;;;14.32;10.38;;;;;;;;;;4988595;28;20030;-59
2021/03/07 00:26:59;;;;;;;11.88;7.95;;;;;;;;;;4989446;28;20030;-59
2021/03/07 00:29:26;;;;;;;14.30;9.82;;;;;;;;;;4986630;28;20077;-59
2021/03/07 00:31:51;;;;;;;20.65;10.75;;;;;;;;;;4985593;28;20030;-59
2021/03/07 00:34:16;;;;;;;18.80;12.52;;;;;;;;;;4987970;28;20730;-59
2021/03/07 00:36:42;;;;;;;21.05;12.73;;;;;;;;;;4989706;28;20443;-59
2021/03/07 00:39:07;;;;;;;20.95;13.13;;;;;;;;;;4985337;28;20034;-59
2021/03/07 00:41:34;;;;;;;18.63;12.40;;;;;;;;;;4984058;28;20073;-59
2021/03/07 00:44:00;;;;;;;19.92;11.73;;;;;;;;;;4985678;28;20410;-59
2021/03/07 00:46:26;;;;;;;15.38;10.80;;;;;;;;;;4984326;28;20030;-59
2021/03/07 00:48:52;;;;;;;19.17;11.13;;;;;;;;;;4986061;28;20488;-59
2021/03/07 00:51:17;;;;;;;17.58;10.18;;;;;;;;;;4984717;28;20067;-61
2021/03/07 00:53:43;;;;;;;20.20;10.35;;;;;;;;;;4984801;28;20026;-59
2021/03/07 00:56:08;;;;;;;14.00;8.82;;;;;;;;;;4985713;28;20032;-59
2021/03/07 00:58:34;;;;;;;16.77;7.90;;;;;;;;;;4982640;28;20170;-59
2021/03/07 01:00:59;;;;;;;13.27;7.72;;;;;;;;;;4985913;28;20095;-59
2021/03/07 01:03:24;;;;;;;21.13;9.38;;;;;;;;;;4984009;28;20376;-59
2021/03/07 01:05:50;;;;;;;13.57;8.95;;;;;;;;;;4982706;28;20026;-59
2021/03/07 01:08:16;;;;;;;12.23;8.02;;;;;;;;;;4984940;28;20050;-59
2021/03/07 01:10:43;;;;;;;12.60;8.10;;;;;;;;;;4984701;28;20093;-59
2021/03/07 01:13:13;;;;;;;15.57;10.90;;;;;;;;;;4985805;28;20022;-59
2021/03/07 01:15:40;;;;;;;14.75;10.52;;;;;;;;;;4982667;28;20068;-59
2021/03/07 01:18:06;;;;;;;12.85;9.32;;;;;;;;;;4985578;28;20045;-59
2021/03/07 01:20:32;;;;;;;16.35;9.48;;;;;;;;;;4983228;28;20034;-59
2021/03/07 01:22:57;;;;;;;19.08;12.07;;;;;;;;;;4985323;28;20054;-59
2021/03/07 01:25:26;;;;;;;21.42;12.32;;;;;;;;;;4983893;28;20151;-59
2021/03/07 01:27:52;;;;;;;26.73;16.27;;;;;;;;;;4985692;28;20321;-59
2021/03/07 01:30:19;;;;;;;28.38;17.15;;;;;;;;;;4984536;28;20030;-59
2021/03/07 01:32:45;;;;;;;23.25;14.93;;;;;;;;;;4985810;28;20030;-59
2021/03/07 01:35:11;;;;;;;15.43;9.10;;;;;;;;;;4984912;28;20360;-59
2021/03/07 01:37:37;;;;;;;14.25;7.10;;;;;;;;;;4983584;28;20026;-59
2021/03/07 01:40:15;;;;;;;9.85;6.90;;;;;;;;;;4984956;28;20131;-59
2021/03/07 01:42:51;;;;;;;11.32;6.80;;;;;;;;;;4986839;28;20456;-59
2021/03/07 01:45:20;;;;;;;8.43;6.00;;;;;;;;;;4986674;28;20038;-60
2021/03/07 01:47:52;;;;;;;14.55;7.20;;;;;;;;;;4988976;28;20052;-60
2021/03/07 01:50:19;;;;;;;10.23;6.82;;;;;;;;;;4987169;28;20041;-60
2021/03/07 01:52:46;;;;;;;14.63;7.00;;;;;;;;;;4988330;28;20085;-60
2021/03/07 01:55:12;;;;;;;11.63;6.93;;;;;;;;;;4988762;28;20037;-59
2021/03/07 01:57:38;;;;;;;12.60;7.13;;;;;;;;;;4984755;28;20101;-59
2021/03/07 02:00:10;;;;;;;11.63;6.97;;;;;;;;;;4989002;28;20525;-60
2021/03/07 02:02:35;;;;;;;9.75;6.38;;;;;;;;;;4986626;28;20046;-59
2021/03/07 02:05:06;;;;;;;11.55;7.03;;;;;;;;;;4987447;28;20548;-60
2021/03/07 02:07:32;;;;;;;15.60;7.63;;;;;;;;;;4985674;28;20026;-59
2021/03/07 02:09:57;;;;;;;18.30;8.77;;;;;;;;;;4988944;28;20349;-59
2021/03/07 02:12:22;;;;;;;15.18;8.77;;;;;;;;;;4986826;28;20055;-60
2021/03/07 02:14:51;;;;;;;14.77;8.88;;;;;;;;;;4987160;28;20030;-60
2021/03/07 02:17:17;;;;;;;18.15;9.20;;;;;;;;;;4987070;28;20088;-60
2021/03/07 02:19:43;;;;;;;15.63;9.68;;;;;;;;;;4987863;28;20034;-60
2021/03/07 02:22:13;;;;;;;13.68;9.20;;;;;;;;;;4988624;28;20998;-60
2021/03/07 02:24:39;;;;;;;14.37;7.83;;;;;;;;;;4986696;28;20092;-60
2021/03/07 02:27:05;;;;;;;16.73;9.90;;;;;;;;;;4988208;28;20109;-60
2021/03/07 02:29:30;;;;;;;16.55;9.63;;;;;;;;;;4986093;28;20062;-60
2021/03/07 02:32:18;;;;;;;12.50;8.88;;;;;;;;;;4990265;28;20544;-60
2021/03/07 02:35:01;;;;;;;14.25;8.82;;;;;;;;;;4989156;28;20031;-60
2021/03/07 02:37:27;;;;;;;11.40;8.63;;;;;;;;;;4984574;28;20380;-60
2021/03/07 02:39:53;;;;;;;13.50;8.57;;;;;;;;;;4986970;28;20133;-59
2021/03/07 02:42:25;;;;;;;10.40;7.35;;;;;;;;;;4989519;28;20109;-60
2021/03/07 02:45:00;;;;;;;13.73;7.88;;;;;;;;;;4986596;28;20096;-60
2021/03/07 02:47:30;;;;;;;12.57;6.80;;;;;;;;;;4984445;28;20073;-60
2021/03/07 02:50:01;;;;;;;9.73;6.90;;;;;;;;;;4987364;28;20521;-60
2021/03/07 02:52:26;;;;;;;11.43;6.72;;;;;;;;;;4985794;28;20838;-60
2021/03/07 02:54:54;;;;;;;14.50;7.28;;;;;;;;;;4987562;28;20029;-60
2021/03/07 02:57:24;;;;;;;10.23;7.15;;;;;;;;;;4984553;28;20606;-60
2021/03/07 02:59:52;;;;;;;12.20;7.45;;;;;;;;;;4987642;28;20089;-60
2021/03/07 03:02:20;;;;;;;10.15;7.75;;;;;;;;;;4986753;28;20041;-60
2021/03/07 03:04:46;;;;;;;10.50;7.30;;;;;;;;;;4985687;28;20038;-60
2021/03/07 03:07:12;;;;;;;14.02;8.00;;;;;;;;;;4981449;28;20114;-60
2021/03/07 03:09:38;;;;;;;11.40;7.75;;;;;;;;;;4987729;28;20385;-60
2021/03/07 03:12:05;;;;;;;12.80;6.70;;;;;;;;;;4987590;28;20018;-60
2021/03/07 03:14:32;;;;;;;9.90;7.32;;;;;;;;;;4987257;28;20035;-60
2021/03/07 03:16:59;;;;;;;10.95;6.80;;;;;;;;;;4986550;28;20031;-60
2021/03/07 03:19:26;;;;;;;15.63;7.93;;;;;;;;;;4985705;28;20372;-60
2021/03/07 03:21:53;;;;;;;10.73;7.60;;;;;;;;;;4987413;28;20018;-60
2021/03/07 03:24:19;;;;;;;13.05;7.82;;;;;;;;;;4986342;28;20519;-60
2021/03/07 03:26:44;;;;;;;14.30;8.25;;;;;;;;;;4986264;28;20428;-60
2021/03/07 03:29:10;;;;;;;12.65;7.57;;;;;;;;;;4987127;28;20026;-60
2021/03/07 03:31:36;;;;;;;13.13;7.45;;;;;;;;;;4985405;28;20034;-60
2021/03/07 03:34:08;;;;;;;13.75;7.70;;;;;;;;;;4987167;28;20458;-60
2021/03/07 03:36:35;;;;;;;11.15;7.40;;;;;;;;;;4984923;28;20043;-59
2021/03/07 03:39:13;;;;;;;11.63;7.70;;;;;;;;;;4987272;28;20038;-60
2021/03/07 03:41:38;;;;;;;13.50;7.95;;;;;;;;;;4986251;28;20030;-59
2021/03/07 03:44:09;;;;;;;12.18;7.60;;;;;;;;;;4985867;28;20032;-59
2021/03/07 03:46:40;;;;;;;13.10;7.77;;;;;;;;;;4985900;28;20073;-58
2021/03/07 03:49:28;;;;;;;8.50;5.47;;;;;;;;;;4985648;28;20030;-58
2021/03/07 03:51:59;;;;;;;10.73;7.43;;;;;;;;;;4985771;28;20038;-59
2021/03/07 03:54:27;;;;;;;15.07;8.40;;;;;;;;;;4984785;28;20069;-59
2021/03/07 03:56:54;;;;;;;10.88;7.15;;;;;;;;;;4986638;28;20057;-59
2021/03/07 03:59:21;;;;;;;10.52;7.15;;;;;;;;;;4984019;28;20057;-59
2021/03/07 04:01:47;;;;;;;13.30;7.70;;;;;;;;;;4985977;28;20122;-59
2021/03/07 04:04:14;;;;;;;11.68;7.47;;;;;;;;;;4986135;28;20030;-60
2021/03/07 04:06:40;;;;;;;10.95;7.65;;;;;;;;;;4985112;28;20461;-60
2021/03/07 04:09:06;;;;;;;15.00;8.43;;;;;;;;;;4986642;28;20356;-60
2021/03/07 04:11:32;;;;;;;15.88;8.13;;;;;;;;;;4984300;28;20034;-60
2021/03/07 04:13:59;;;;;;;12.68;7.68;;;;;;;;;;4986777;28;20045;-60
2021/03/07 04:16:25;;;;;;;11.88;7.38;;;;;;;;;;4983474;28;20449;-60
2021/03/07 04:18:50;;;;;;;12.52;7.55;;;;;;;;;;4986142;28;20456;-60
2021/03/07 04:21:16;;;;;;;12.75;7.38;;;;;;;;;;4985348;28;20033;-60
2021/03/07 04:23:42;;;;;;;13.10;7.82;;;;;;;;;;4984276;28;20034;-60
2021/03/07 04:26:08;;;;;;;14.75;7.63;;;;;;;;;;4988451;28;20034;-59
2021/03/07 04:28:34;;;;;;;16.00;8.50;;;;;;;;;;4989275;28;20026;-60
2021/03/07 04:31:00;;;;;;;9.68;7.07;;;;;;;;;;4988226;28;20168;-59
2021/03/07 04:33:25;;;;;;;13.10;8.63;;;;;;;;;;4985409;28;20053;-59
2021/03/07 04:35:51;;;;;;;12.95;8.15;;;;;;;;;;4984405;28;20058;-60
2021/03/07 04:38:16;;;;;;;15.32;9.10;;;;;;;;;;4984784;28;20056;-59
2021/03/07 04:40:42;;;;;;;17.30;8.70;;;;;;;;;;4984143;28;20027;-59
2021/03/07 04:43:08;;;;;;;12.90;8.15;;;;;;;;;;4986341;28;20475;-58
2021/03/07 04:45:34;;;;;;;12.52;7.72;;;;;;;;;;4983438;28;20035;-59
2021/03/07 04:48:00;;;;;;;13.15;8.15;;;;;;;;;;4984970;28;20479;-59
2021/03/07 04:50:26;;;;;;;15.10;9.07;;;;;;;;;;4983384;28;20066;-59
2021/03/07 04:52:51;;;;;;;16.13;8.00;;;;;;;;;;4985841;28;20117;-60
2021/03/07 04:55:16;;;;;;;14.77;8.95;;;;;;;;;;4987636;28;20042;-60
2021/03/07 04:57:42;;;;;;;14.88;8.43;;;;;;;;;;4988669;28;20470;-58
2021/03/07 05:00:11;;;;;;;9.60;7.53;;;;;;;;;;4987857;28;20030;-59
2021/03/07 05:02:36;;;;;;;12.85;7.80;;;;;;;;;;5012721;28;20019;-60
2021/03/07 05:05:03;;;;;;;12.15;7.50;;;;;;;;;;4984870;28;20654;-59
2021/03/07 05:07:28;;;;;;;15.15;8.80;;;;;;;;;;4982421;28;20384;-60
2021/03/07 05:09:54;;;;;;;14.18;8.52;;;;;;;;;;4985899;28;20029;-60
2021/03/07 05:12:19;;;;;;;14.32;8.30;;;;;;;;;;4984231;28;20022;-60
2021/03/07 05:14:45;;;;;;;18.40;9.80;;;;;;;;;;4984843;28;20445;-60
2021/03/07 05:17:11;;;;;;;17.52;8.60;;;;;;;;;;4986232;28;20108;-60
2021/03/07 05:19:36;;;;;;;12.55;9.00;;;;;;;;;;4987503;28;20033;-60
2021/03/07 05:22:01;;;;;;;10.85;7.88;;;;;;;;;;4988946;28;20448;-60
2021/03/07 05:24:27;;;;;;;11.80;8.23;;;;;;;;;;4989797;28;20038;-59
2021/03/07 05:26:52;;;;;;;11.73;8.13;;;;;;;;;;4989585;28;20077;-60
2021/03/07 05:29:18;;;;;;;10.27;7.47;;;;;;;;;;4988373;28;20034;-60
2021/03/07 05:31:43;;;;;;;12.25;8.23;;;;;;;;;;4985721;28;20031;-59
2021/03/07 05:34:08;;;;;;;11.48;7.70;;;;;;;;;;4988998;28;20038;-60
2021/03/07 05:36:34;;;;;;;16.33;8.27;;;;;;;;;;4987553;28;20412;-60
2021/03/07 05:38:59;;;;;;;11.73;7.07;;;;;;;;;;4989058;28;20103;-60
2021/03/07 05:41:25;;;;;;;12.75;7.32;;;;;;;;;;4985471;28;20065;-59
2021/03/07 05:43:50;;;;;;;11.30;7.35;;;;;;;;;;4987179;28;20460;-60
2021/03/07 05:46:16;;;;;;;12.57;7.65;;;;;;;;;;4984115;28;20040;-59
2021/03/07 05:48:42;;;;;;;15.48;8.30;;;;;;;;;;4987844;28;20038;-60
2021/03/07 05:51:13;;;;;;;11.18;7.88;;;;;;;;;;4990610;28;20364;-57
2021/03/07 05:53:41;;;;;;;12.80;8.33;;;;;;;;;;4986128;28;20151;-60
2021/03/07 05:56:10;;;;;;;11.88;7.75;;;;;;;;;;4990175;28;20625;-60
2021/03/07 05:58:36;;;;;;;12.70;8.32;;;;;;;;;;4984742;28;20034;-60
2021/03/07 06:01:02;;;;;;;14.18;9.32;;;;;;;;;;4989932;28;20337;-59
2021/03/07 06:03:28;;;;;;;12.15;8.18;;;;;;;;;;4987171;28;20042;-60
2021/03/07 06:05:53;;;;;;;13.40;8.65;;;;;;;;;;4988464;28;20034;-60
2021/03/07 06:08:19;;;;;;;11.02;7.60;;;;;;;;;;4987136;28;20498;-60
2021/03/07 06:10:45;;;;;;;13.32;9.48;;;;;;;;;;4987981;28;20503;-59
2021/03/07 06:13:10;;;;;;;13.20;7.75;;;;;;;;;;4989632;28;20034;-60
2021/03/07 06:15:44;;;;;;;13.98;8.57;;;;;;;;;;4989259;28;20456;-60
2021/03/07 06:18:16;;;;;;;15.30;8.52;;;;;;;;;;4990774;28;20057;-60
2021/03/07 06:20:42;;;;;;;11.88;7.80;;;;;;;;;;4990658;28;20452;-60
2021/03/07 06:23:08;;;;;;;10.85;7.45;;;;;;;;;;4991706;28;20026;-60
2021/03/07 06:25:43;;;;;;;13.48;8.35;;;;;;;;;;4991873;28;20499;-60
2021/03/07 06:28:25;;;;;;;12.93;7.78;;;;;;;;;;4989380;28;20034;-60
2021/03/07 06:30:52;;;;;;;13.73;8.23;;;;;;;;;;4986553;28;20034;-60
2021/03/07 06:33:28;;;;;;;11.65;7.65;;;;;;;;;;4988084;28;20034;-60
2021/03/07 06:36:15;;;;;;;11.38;7.78;;;;;;;;;;4989244;28;20372;-59
2021/03/07 06:38:57;;;;;;;15.18;8.88;;;;;;;;;;4986350;28;20484;-59
2021/03/07 06:41:26;;;;;;;16.08;8.50;;;;;;;;;;4984643;28;20113;-59
2021/03/07 06:44:04;;;;;;;10.82;7.80;;;;;;;;;;4985162;28;20466;-60
2021/03/07 06:46:36;;;;;;;12.45;9.00;;;;;;;;;;4984339;28;20077;-59
2021/03/07 06:49:03;;;;;;;12.80;8.48;;;;;;;;;;4987687;28;20030;-59
2021/03/07 06:51:35;;;;;;;14.75;9.23;;;;;;;;;;4985656;28;20037;-60
2021/03/07 06:54:15;;;;;;;12.95;8.88;;;;;;;;;;4989082;28;20077;-60
2021/03/07 06:56:43;;;;;;;10.30;7.95;;;;;;;;;;4989416;28;20041;-60
2021/03/07 06:59:15;;;;;;;21.38;9.55;;;;;;;;;;4990083;28;20045;-60
2021/03/07 07:01:43;;;;;;;12.77;8.82;;;;;;;;;;4987708;28;20389;-60
2021/03/07 07:04:09;;;;;;;13.57;7.88;;;;;;;;;;4987500;28;20046;-60
2021/03/07 07:06:36;;;;;;;11.88;8.65;;;;;;;;;;4984769;28;20030;-60
2021/03/07 07:09:03;;;;;;;12.32;7.80;;;;;;;;;;4987392;28;20030;-59
2021/03/07 07:11:36;;;;;;;15.38;8.10;;;;;;;;;;4985177;28;21135;-59
2021/03/07 07:14:01;;;;;;;13.10;7.90;;;;;;;;;;4986174;28;20037;-59
2021/03/07 07:16:27;;;;;;;12.98;8.18;;;;;;;;;;4983377;28;20038;-59
2021/03/07 07:18:52;;;;;;;15.82;9.32;;;;;;;;;;4988653;28;20040;-60
2021/03/07 07:21:18;;;;;;;11.57;8.52;;;;;;;;;;4986062;28;20038;-59
2021/03/07 07:23:47;;;;;;;12.57;7.88;;;;;;;;;;4986283;28;20046;-60
2021/03/07 07:26:13;;;;;;;13.52;8.75;;;;;;;;;;4986629;28;20105;-60
2021/03/07 07:28:39;;;;;;;14.43;8.85;;;;;;;;;;4987074;28;20113;-60
2021/03/07 07:31:28;;;;;;;12.70;8.10;;;;;;;;;;4987953;28;20113;-60
2021/03/07 07:33:59;;;;;;;14.07;9.35;;;;;;;;;;4988207;28;20045;-60
2021/03/07 07:36:28;;;;;;;10.70;7.70;;;;;;;;;;4985065;28;20049;-60
2021/03/07 07:38:56;;;;;;;11.25;8.30;;;;;;;;;;4985635;28;20030;-59
2021/03/07 07:41:33;;;;;;;11.52;7.25;;;;;;;;;;4984316;28;20046;-58
2021/03/07 07:44:01;;;;;;;13.70;7.55;;;;;;;;;;4985531;28;20038;-59
2021/03/07 07:46:27;;;;;;;15.82;8.30;;;;;;;;;;4985258;28;20153;-59
2021/03/07 07:48:52;;;;;;;20.88;11.88;;;;;;;;;;4983322;28;20038;-59
2021/03/07 07:51:31;;;;;;;15.25;10.82;;;;;;;;;;4983389;28;20579;-59
2021/03/07 07:53:57;;;;;;;16.40;9.65;;;;;;;;;;4985868;28;20451;-59
2021/03/07 07:56:41;;;;;;;15.15;9.07;;;;;;;;;;4984710;28;20077;-59
2021/03/07 07:59:08;;;;;;;17.98;10.55;;;;;;;;;;4984289;28;20030;-59
2021/03/07 08:01:56;;;;;;;13.57;8.73;;;;;;;;;;4985109;28;20023;-59
2021/03/07 08:04:27;;;;;;;13.18;8.85;;;;;;;;;;4983084;28;20112;-60
2021/03/07 08:06:56;;;;;;;13.23;8.93;;;;;;;;;;4988849;28;20064;-59
2021/03/07 08:09:45;;;;;;;10.98;7.43;;;;;;;;;;4987989;28;20683;-59
2021/03/07 08:12:42;;;;;;;11.45;7.53;;;;;;;;;;4986406;28;20038;-59
2021/03/07 08:15:25;;;;;;;11.70;8.30;;;;;;;;;;4982140;28;20117;-59
2021/03/07 08:17:58;;;;;;;11.93;7.80;;;;;;;;;;4985045;28;20376;-59
2021/03/07 08:20:42;;;;;;;11.15;7.90;;;;;;;;;;4985591;28;20779;-59
2021/03/07 08:23:15;;;;;;;13.70;7.15;;;;;;;;;;4981112;28;20033;-59
2021/03/07 08:25:47;;;;;;;10.23;7.07;;;;;;;;;;4981438;28;20034;-59
2021/03/07 08:28:33;;;;;;;14.40;6.78;;;;;;;;;;4986749;28;20030;-60
2021/03/07 08:31:09;;;;;;;12.75;7.72;;;;;;;;;;4984370;28;20976;-60
2021/03/07 08:33:39;;;;;;;11.85;7.47;;;;;;;;;;4980894;28;20031;-60
2021/03/07 08:36:10;;;;;;;13.20;7.20;;;;;;;;;;4982250;28;20089;-60
2021/03/07 08:38:36;;;;;;;13.07;7.78;;;;;;;;;;4982070;28;20084;-60
2021/03/07 08:41:02;;;;;;;10.27;7.80;;;;;;;;;;4982163;28;20519;-60
2021/03/07 08:43:31;;;;;;;15.60;7.28;;;;;;;;;;4984006;28;20038;-60
2021/03/07 08:46:08;;;;;;;9.23;6.03;;;;;;;;;;4983965;28;20120;-59
2021/03/07 08:48:35;;;;;;;9.52;6.25;;;;;;;;;;4983231;28;20041;-59
2021/03/07 08:51:01;;;;;;;10.25;6.10;;;;;;;;;;4984197;28;20041;-59
2021/03/07 08:53:37;;;;;;;12.48;6.68;;;;;;;;;;4983296;28;20030;-59
2021/03/07 08:56:03;;;;;;;8.77;5.55;;;;;;;;;;4985575;28;20092;-58
2021/03/07 08:58:29;;;;;;;7.88;5.40;;;;;;;;;;4982948;28;20035;-58
2021/03/07 09:00:56;;;;;;;11.23;5.70;;;;;;;;;;4983665;28;20034;-59
2021/03/07 09:03:23;;;;;;;8.73;5.82;;;;;;;;;;4983924;28;20049;-58
2021/03/07 09:05:50;;;;;;;10.52;6.15;;;;;;;;;;4985067;28;20368;-59
2021/03/07 09:08:20;;;;;;;8.63;5.88;;;;;;;;;;4986440;28;20058;-59
2021/03/07 09:10:48;;;;;;;7.88;5.78;;;;;;;;;;4984822;28;20034;-59
2021/03/07 09:13:22;;;;;;;8.65;5.55;;;;;;;;;;4985303;28;20030;-59
2021/03/07 09:15:52;;;;;;;7.80;5.50;;;;;;;;;;4986965;28;20042;-59
2021/03/07 09:18:22;;;;;;;10.10;5.88;;;;;;;;;;4983105;28;20579;-59
2021/03/07 09:20:56;;;;;;;9.70;5.82;;;;;;;;;;4984827;28;20062;-59
2021/03/07 09:23:30;;;;;;;11.98;6.30;;;;;;;;;;4985516;28;20034;-59
2021/03/07 09:25:57;;;;;;;9.95;5.60;;;;;;;;;;4986586;28;20105;-59
2021/03/07 09:28:43;;;;;;;8.43;5.88;;;;;;;;;;4984172;28;20031;-59
2021/03/07 09:31:14;;;;;;;6.93;5.40;;;;;;;;;;4983427;28;20122;-59
2021/03/07 09:33:56;;;;;;;7.60;5.78;;;;;;;;;;4983706;28;20469;-58
2021/03/07 09:36:24;;;;;;;7.47;5.13;;;;;;;;;;4983896;28;20104;-60
2021/03/07 09:39:01;;;;;;;8.20;5.35;;;;;;;;;;4984822;28;20053;-60
2021/03/07 09:41:44;;;;;;;7.35;5.25;;;;;;;;;;4982791;28;20481;-60
2021/03/07 09:44:18;;;;;;;7.45;5.15;;;;;;;;;;4983583;28;20072;-60
2021/03/07 09:46:45;;;;;;;8.35;5.20;;;;;;;;;;4985513;28;20357;-60
2021/03/07 09:49:14;;;;;;;8.38;5.47;;;;;;;;;;4984866;28;20356;-60
2021/03/07 09:51:41;;;;;;;7.78;5.20;;;;;;;;;;4983439;28;20037;-60
2021/03/07 09:54:14;;;;;;;7.82;5.78;;;;;;;;;;4981855;28;20126;-60
2021/03/07 09:56:41;;;;;;;8.27;5.38;;;;;;;;;;4985087;28;20034;-60
2021/03/07 09:59:22;;;;;;;10.32;6.20;;;;;;;;;;4987344;28;20045;-60
2021/03/07 10:01:50;;;;;;;8.32;5.93;;;;;;;;;;4981143;28;20081;-60
2021/03/07 10:04:32;;;;;;;8.00;5.60;;;;;;;;;;4987745;28;20034;-60
2021/03/07 10:06:58;;;;;;;8.27;5.45;;;;;;;;;;4987749;28;20092;-60
2021/03/07 10:09:24;;;;;;;7.97;4.93;;;;;;;;;;4986314;28;20038;-60
2021/03/07 10:12:01;;;;;;;6.25;4.15;;;;;;;;;;4986734;28;20049;-60
2021/03/07 10:14:32;;;;;;;9.20;5.15;;;;;;;;;;4986259;28;20034;-60
2021/03/07 10:16:59;;;;;;;8.80;5.20;;;;;;;;;;4989929;28;20058;-60
2021/03/07 10:19:45;;;;;;;7.57;5.05;;;;;;;;;;4985988;28;20112;-60
2021/03/07 10:22:11;;;;;;;10.57;6.88;;;;;;;;;;4987801;28;20054;-60
2021/03/07 10:24:37;;;;;;;11.75;6.38;;;;;;;;;;4986264;28;20027;-60
2021/03/07 10:27:05;;;;;;;7.18;5.10;;;;;;;;;;4987009;28;20430;-60
2021/03/07 10:29:33;;;;;;;7.03;4.65;;;;;;;;;;4986528;28;20046;-60
2021/03/07 10:32:15;;;;;;;5.38;3.75;;;;;;;;;;4983215;28;20031;-60
2021/03/07 10:34:51;;;;;;;7.05;4.72;;;;;;;;;;4987581;28;20499;-60
2021/03/07 10:37:42;;;;;;;8.65;5.07;;;;;;;;;;4987005;28;20061;-60
2021/03/07 10:40:11;;;;;;;6.32;3.97;;;;;;;;;;4986178;28;20056;-60
2021/03/07 10:42:39;;;;;;;5.88;3.97;;;;;;;;;;4985319;28;20034;-60
2021/03/07 10:45:21;;;;;;;7.80;4.85;;;;;;;;;;4985391;28;20113;-60
2021/03/07 10:48:05;;;;;;;6.70;4.40;;;;;;;;;;4986879;28;20034;-60
2021/03/07 10:50:30;;;;;;;5.97;3.42;;;;;;;;;;4984946;28;20038;-60
2021/03/07 10:52:56;;;;;;;6.15;4.10;;;;;;;;;;4985567;28;20046;-60
2021/03/07 10:55:22;;;;;;;6.93;4.15;;;;;;;;;;4985268;28;20552;-60
2021/03/07 10:57:48;;;;;;;6.35;3.85;;;;;;;;;;4987047;28;21121;-60
2021/03/07 11:00:14;;;;;;;6.00;4.13;;;;;;;;;;4987196;28;20042;-60
2021/03/07 11:02:42;;;;;;;6.32;3.95;;;;;;;;;;4984687;28;20060;-60
2021/03/07 11:05:08;;;;;;;5.80;3.40;;;;;;;;;;4987246;28;20077;-61
2021/03/07 11:07:33;;;;;;;6.70;4.25;;;;;;;;;;4984821;28;20050;-60
2021/03/07 11:09:59;;;;;;;8.75;6.00;;;;;;;;;;4987530;28;20184;-60
2021/03/07 11:12:24;;;;;;;6.60;3.65;;;;;;;;;;4983109;28;20038;-60
2021/03/07 11:14:49;;;;;;;9.88;3.85;;;;;;;;;;4986388;28;20030;-60
2021/03/07 11:17:15;;;;;;;6.05;3.25;;;;;;;;;;4986596;28;20030;-60
2021/03/07 11:19:40;;;;;;;5.53;4.10;;;;;;;;;;4984477;28;20031;-60
2021/03/07 11:22:06;;;;;;;6.43;4.57;;;;;;;;;;4985903;28;20093;-60
2021/03/07 11:24:31;;;;;;;6.60;4.32;;;;;;;;;;4984597;28;20066;-60
2021/03/07 11:26:56;;;;;;;6.10;4.30;;;;;;;;;;4986513;28;20039;-60
2021/03/07 11:29:22;;;;;;;5.80;3.67;;;;;;;;;;4985198;28;20337;-60
2021/03/07 11:31:47;;;;;;;6.05;3.95;;;;;;;;;;4986438;28;20112;-60
2021/03/07 11:34:13;;;;;;;8.60;4.35;;;;;;;;;;4986401;28;20112;-60
2021/03/07 11:36:38;;;;;;;5.18;3.75;;;;;;;;;;4984177;28;20066;-60
2021/03/07 11:39:04;;;;;;;11.95;6.82;;;;;;;;;;4986867;28;20058;-60
2021/03/07 11:41:29;;;;;;;5.45;3.75;;;;;;;;;;4983847;28;20456;-60
2021/03/07 11:43:55;;;;;;;6.93;3.50;;;;;;;;;;4986705;28;20057;-60
2021/03/07 11:46:20;;;;;;;6.32;3.83;;;;;;;;;;4983392;28;20023;-60
2021/03/07 11:48:46;;;;;;;6.93;4.70;;;;;;;;;;4984939;28;20109;-60
2021/03/07 11:51:11;;;;;;;7.82;4.63;;;;;;;;;;4986359;28;20077;-61
2021/03/07 11:53:36;;;;;;;6.05;4.45;;;;;;;;;;4983255;28;20045;-61
2021/03/07 11:56:02;;;;;;;11.88;6.30;;;;;;;;;;4986386;28;20026;-62
2021/03/07 11:58:27;;;;;;;5.85;4.18;;;;;;;;;;4983634;28;20134;-62
2021/03/07 12:00:53;;;;;;;6.63;4.28;;;;;;;;;;4986474;28;20032;-62
2021/03/07 12:03:18;;;;;;;5.57;4.00;;;;;;;;;;4984719;28;20069;-63
2021/03/07 12:05:44;;;;;;;6.35;3.70;;;;;;;;;;4984825;28;20060;-63
2021/03/07 12:08:09;;;;;;;6.80;4.15;;;;;;;;;;4986532;28;20038;-63
2021/03/07 12:10:34;;;;;;;6.32;3.67;;;;;;;;;;4980921;28;20063;-63
2021/03/07 12:13:00;;;;;;;5.32;3.47;;;;;;;;;;4986508;28;20061;-62
2021/03/07 12:15:26;;;;;;;6.07;3.90;;;;;;;;;;4986532;28;20042;-63
2021/03/07 12:17:51;;;;;;;5.80;4.07;;;;;;;;;;4983530;28;20034;-63
2021/03/07 12:20:17;;;;;;;5.43;3.40;;;;;;;;;;4982595;28;20128;-62
2021/03/07 12:22:42;;;;;;;5.88;3.53;;;;;;;;;;4984851;28;20121;-62
2021/03/07 12:25:09;;;;;;;5.97;3.47;;;;;;;;;;4984506;28;20038;-61
2021/03/07 12:27:35;;;;;;;5.80;4.00;;;;;;;;;;4982072;28;20042;-61
2021/03/07 12:30:00;;;;;;;7.10;3.58;;;;;;;;;;4986972;28;20034;-61
2021/03/07 12:32:25;;;;;;;9.32;3.88;;;;;;;;;;4980699;28;20065;-62
2021/03/07 12:34:51;;;;;;;6.03;3.40;;;;;;;;;;4985202;28;20330;-62
2021/03/07 12:37:16;;;;;;;6.25;4.03;;;;;;;;;;4984213;28;20528;-61
2021/03/07 12:39:42;;;;;;;6.35;3.67;;;;;;;;;;4984170;28;20039;-62
2021/03/07 12:42:07;;;;;;;5.72;3.13;;;;;;;;;;4985755;28;20038;-61
2021/03/07 12:44:33;;;;;;;6.20;3.97;;;;;;;;;;4981729;28;20512;-61
2021/03/07 12:46:58;;;;;;;6.30;3.80;;;;;;;;;;4985026;28;20049;-61
2021/03/07 12:49:24;;;;;;;5.60;3.50;;;;;;;;;;4983839;28;20034;-60
2021/03/07 12:51:50;;;;;;;5.22;3.60;;;;;;;;;;4984770;28;20065;-60
2021/03/07 12:54:15;;;;;;;4.93;3.60;;;;;;;;;;4983318;28;20531;-60
2021/03/07 12:56:40;;;;;;;6.45;3.97;;;;;;;;;;4981166;28;20106;-60
2021/03/07 12:59:06;;;;;;;7.60;4.05;;;;;;;;;;4989650;28;20101;-60
2021/03/07 13:01:32;;;;;;;6.20;4.20;;;;;;;;;;4984176;28;20081;-61
2021/03/07 13:03:57;;;;;;;5.88;3.92;;;;;;;;;;4985467;28;20061;-60
2021/03/07 13:06:23;;;;;;;7.00;4.10;;;;;;;;;;4983933;28;20421;-60
2021/03/07 13:08:49;;;;;;;6.22;4.25;;;;;;;;;;4984717;28;21208;-61
2021/03/07 13:11:14;;;;;;;5.40;3.90;;;;;;;;;;4984795;28;20026;-61
2021/03/07 13:13:39;;;;;;;5.60;4.05;;;;;;;;;;4984176;28;20068;-62
2021/03/07 13:16:05;;;;;;;6.07;4.32;;;;;;;;;;4980511;28;20081;-61
2021/03/07 13:18:31;;;;;;;6.43;4.28;;;;;;;;;;4983165;28;20035;-62
2021/03/07 13:20:56;;;;;;;6.47;4.10;;;;;;;;;;4982642;28;20143;-62
2021/03/07 13:23:22;;;;;;;7.45;4.25;;;;;;;;;;4982097;28;20064;-61
2021/03/07 13:25:47;;;;;;;5.32;3.22;;;;;;;;;;4983041;28;20038;-61
2021/03/07 13:28:14;;;;;;;5.22;3.80;;;;;;;;;;4983494;28;20352;-62
2021/03/07 13:30:40;;;;;;;8.77;3.85;;;;;;;;;;4979556;28;20030;-62
2021/03/07 13:33:06;;;;;;;5.05;3.58;;;;;;;;;;4977865;28;20038;-62
2021/03/07 13:35:32;;;;;;;6.22;3.90;;;;;;;;;;4980759;28;20045;-62
2021/03/07 13:37:58;;;;;;;6.40;4.18;;;;;;;;;;4985001;28;20034;-62
2021/03/07 13:40:23;;;;;;;6.22;4.03;;;;;;;;;;4988117;28;20038;-62
2021/03/07 13:42:49;;;;;;;6.63;4.45;;;;;;;;;;4986146;28;20108;-63
2021/03/07 13:45:15;;;;;;;5.38;4.00;;;;;;;;;;4984577;28;20173;-62
2021/03/07 13:47:43;;;;;;;6.63;4.65;;;;;;;;;;4985108;28;20039;-63
2021/03/07 13:50:10;;;;;;;8.77;6.43;;;;;;;;;;4989251;28;20551;-63
2021/03/07 13:52:38;;;;;;;8.80;4.68;;;;;;;;;;4989732;28;20532;-64
2021/03/07 13:55:04;;;;;;;6.47;3.95;;;;;;;;;;4986196;28;20037;-64
2021/03/07 13:57:29;;;;;;;8.18;4.15;;;;;;;;;;4987326;28;20037;-64
2021/03/07 13:59:55;;;;;;;6.00;3.88;;;;;;;;;;4991304;28;20369;-65
2021/03/07 14:02:20;;;;;;;8.80;4.20;;;;;;;;;;4989181;28;20038;-64
2021/03/07 14:04:45;;;;;;;7.82;3.92;;;;;;;;;;4986179;28;20483;-62
2021/03/07 14:07:11;;;;;;;7.15;3.63;;;;;;;;;;4987226;28;20072;-63
2021/03/07 14:09:36;;;;;;;7.32;3.95;;;;;;;;;;4988930;28;20042;-63
2021/03/07 14:12:03;;;;;;;6.70;3.80;;;;;;;;;;4988701;28;20078;-63
2021/03/07 14:14:28;;;;;;;5.60;3.40;;;;;;;;;;4984746;28;20038;-63
2021/03/07 14:16:53;;;;;;;5.88;4.25;;;;;;;;;;4988173;28;20081;-63
2021/03/07 14:19:19;;;;;;;5.03;3.53;;;;;;;;;;4986910;28;20041;-64
2021/03/07 14:21:44;;;;;;;5.63;3.70;;;;;;;;;;4987231;28;20500;-64
2021/03/07 14:24:10;;;;;;;6.28;3.67;;;;;;;;;;4988164;28;20038;-64
2021/03/07 14:26:35;;;;;;;6.05;3.90;;;;;;;;;;4987848;28;20027;-64
2021/03/07 14:29:03;;;;;;;5.38;3.75;;;;;;;;;;4985739;28;20030;-64
2021/03/07 14:31:28;;;;;;;5.95;3.67;;;;;;;;;;4990438;28;20042;-64
2021/03/07 14:33:53;;;;;;;5.95;3.95;;;;;;;;;;4987635;28;20049;-64
2021/03/07 14:36:19;;;;;;;8.20;3.78;;;;;;;;;;4986926;28;20042;-64
2021/03/07 14:38:44;;;;;;;6.55;3.90;;;;;;;;;;4987229;28;20108;-64